createdAt,value
2018-12-29T00:01:23.140Z,0.00
2018-12-29T00:03:52.090Z,0.00
2018-12-29T00:06:21.079Z,0.00
2018-12-29T00:08:50.011Z,0.00
2018-12-29T00:11:19.984Z,0.00
2018-12-29T00:13:49.152Z,-0.20
2018-12-29T00:16:18.039Z,0.00
2018-12-29T00:18:47.227Z,-0.20
2018-12-29T00:21:16.930Z,-0.20
2018-12-29T00:23:45.779Z,-0.10
2018-12-29T00:26:14.743Z,0.00
2018-12-29T00:28:44.004Z,0.00
2018-12-29T00:31:13.024Z,0.00
2018-12-29T00:33:41.974Z,-0.20
2018-12-29T00:36:30.112Z,-0.20
2018-12-29T00:38:58.962Z,-0.30
2018-12-29T00:41:27.890Z,-0.30
2018-12-29T00:43:56.735Z,-0.30
2018-12-29T00:46:26.015Z,-0.20
2018-12-29T00:48:54.858Z,-0.20
2018-12-29T00:51:23.879Z,-0.30
2018-12-29T00:53:52.977Z,-0.20
2018-12-29T00:56:22.155Z,-0.20
2018-12-29T00:58:51.040Z,-0.10
2018-12-29T01:01:19.943Z,-0.10
2018-12-29T01:03:49.276Z,-0.10
2018-12-29T01:06:18.180Z,-0.10
2018-12-29T01:08:47.100Z,0.00
2018-12-29T01:11:16.002Z,0.00
2018-12-29T01:13:45.010Z,-0.10
2018-12-29T01:16:14.067Z,-0.10
2018-12-29T01:18:43.267Z,-0.10
2018-12-29T01:21:12.172Z,-0.10
2018-12-29T01:23:41.045Z,-0.10
2018-12-29T01:26:09.930Z,-0.20
2018-12-29T01:28:38.822Z,-0.10
2018-12-29T01:31:10.943Z,-0.10
2018-12-29T01:33:40.241Z,0.00
2018-12-29T01:36:09.286Z,0.10
2018-12-29T01:38:38.370Z,0.00
2018-12-29T01:41:07.395Z,0.00
2018-12-29T01:43:36.430Z,0.00
2018-12-29T01:46:05.503Z,-0.20
2018-12-29T01:48:34.512Z,-0.40
2018-12-29T01:51:03.762Z,-0.40
2018-12-29T01:53:32.869Z,-0.50
2018-12-29T01:56:02.153Z,-0.60
2018-12-29T01:58:31.262Z,-0.40
2018-12-29T02:01:00.231Z,-0.40
2018-12-29T02:03:29.190Z,-0.20
2018-12-29T02:05:58.179Z,-0.20
2018-12-29T02:08:27.235Z,-0.20
2018-12-29T02:10:56.145Z,-0.20
2018-12-29T02:13:25.186Z,-0.30
2018-12-29T02:15:54.059Z,-0.20
2018-12-29T02:18:23.113Z,-0.10
2018-12-29T02:20:52.074Z,-0.10
2018-12-29T02:23:21.163Z,-0.10
2018-12-29T02:25:50.196Z,-0.10
2018-12-29T02:28:19.883Z,0.00
2018-12-29T02:30:48.851Z,0.10
2018-12-29T02:33:17.868Z,0.10
2018-12-29T02:35:46.815Z,-0.10
2018-12-29T02:38:15.799Z,0.00
2018-12-29T02:40:44.715Z,-0.10
2018-12-29T02:43:13.715Z,-0.10
2018-12-29T02:45:43.604Z,-0.10
2018-12-29T02:48:13.210Z,-0.40
2018-12-29T02:50:42.464Z,-0.30
2018-12-29T02:53:11.424Z,-0.10
2018-12-29T02:55:40.361Z,-0.20
2018-12-29T02:58:09.388Z,-0.10
2018-12-29T03:00:38.358Z,0.00
2018-12-29T03:03:07.424Z,0.00
2018-12-29T03:05:36.415Z,0.00
2018-12-29T03:08:05.394Z,-0.10
2018-12-29T03:10:34.432Z,0.00
2018-12-29T03:13:03.505Z,-0.10
2018-12-29T03:15:32.438Z,0.00
2018-12-29T03:18:01.561Z,0.00
2018-12-29T03:20:30.451Z,-0.10
2018-12-29T03:22:59.411Z,-0.10
2018-12-29T03:25:28.314Z,0.00
2018-12-29T03:27:57.239Z,-0.10
2018-12-29T03:30:26.392Z,-0.10
2018-12-29T03:32:55.465Z,0.00
2018-12-29T03:35:24.515Z,-0.10
2018-12-29T03:37:53.467Z,-0.30
2018-12-29T03:40:22.452Z,-0.20
2018-12-29T03:42:51.467Z,0.00
2018-12-29T03:45:20.526Z,-0.10
2018-12-29T03:47:49.677Z,-0.10
2018-12-29T03:50:18.652Z,0.00
2018-12-29T03:52:47.777Z,-0.10
2018-12-29T03:55:17.097Z,-0.20
2018-12-29T03:57:46.711Z,-0.20
2018-12-29T04:00:15.660Z,-0.30
2018-12-29T04:02:44.800Z,-0.10
2018-12-29T04:05:13.738Z,-0.10
2018-12-29T04:07:42.712Z,0.00
2018-12-29T04:10:15.283Z,-0.10
2018-12-29T04:12:47.865Z,-0.20
2018-12-29T04:15:16.954Z,-0.10
2018-12-29T04:17:46.043Z,-0.10
2018-12-29T04:20:15.018Z,-0.20
2018-12-29T04:22:44.080Z,-0.20
2018-12-29T04:25:13.882Z,-0.20
2018-12-29T04:27:42.967Z,-0.30
2018-12-29T04:30:12.130Z,-0.30
2018-12-29T04:32:41.035Z,-0.30
2018-12-29T04:35:10.050Z,-0.40
2018-12-29T04:37:39.051Z,-0.20
2018-12-29T04:40:08.012Z,-0.30
2018-12-29T04:42:36.984Z,-0.20
2018-12-29T04:45:06.150Z,-0.20
2018-12-29T04:47:35.038Z,-0.20
2018-12-29T04:50:04.797Z,-0.40
2018-12-29T04:52:34.822Z,-0.30
2018-12-29T04:55:03.758Z,-0.40
2018-12-29T04:57:32.965Z,-0.50
2018-12-29T05:00:01.804Z,-0.50
2018-12-29T05:02:30.756Z,-0.40
2018-12-29T05:04:59.652Z,-0.60
2018-12-29T05:07:28.468Z,-0.40
2018-12-29T05:09:57.332Z,-0.50
2018-12-29T05:12:26.262Z,-0.60
2018-12-29T05:14:55.112Z,-0.70
2018-12-29T05:17:24.517Z,-0.70
2018-12-29T05:19:53.364Z,-0.70
2018-12-29T05:22:22.309Z,-0.60
2018-12-29T05:24:51.197Z,-0.60
2018-12-29T05:27:20.677Z,-0.70
2018-12-29T05:29:49.724Z,-0.60
2018-12-29T05:32:18.559Z,-0.60
2018-12-29T05:34:47.418Z,-0.60
2018-12-29T05:37:16.344Z,-0.60
2018-12-29T05:39:45.205Z,-0.60
2018-12-29T05:42:14.330Z,-0.70
2018-12-29T05:44:43.542Z,-0.70
2018-12-29T05:47:12.442Z,-0.60
2018-12-29T05:49:41.334Z,-0.60
2018-12-29T05:52:10.266Z,-0.60
2018-12-29T05:54:39.204Z,-0.60
2018-12-29T05:57:08.125Z,-0.50
2018-12-29T05:59:37.058Z,-0.50
2018-12-29T06:02:06.513Z,-0.40
2018-12-29T06:04:35.633Z,-0.50
2018-12-29T06:07:04.520Z,-0.50
2018-12-29T06:09:33.379Z,-0.50
2018-12-29T06:12:02.546Z,-0.40
2018-12-29T06:14:31.474Z,-0.50
2018-12-29T06:17:00.668Z,-0.40
2018-12-29T06:19:29.733Z,-0.40
2018-12-29T06:21:58.869Z,-0.40
2018-12-29T06:24:27.709Z,-0.50
2018-12-29T06:26:56.928Z,-0.40
2018-12-29T06:29:25.748Z,-0.40
2018-12-29T06:31:54.581Z,-0.50
2018-12-29T06:34:23.437Z,-0.50
2018-12-29T06:36:52.405Z,-0.50
2018-12-29T06:39:21.291Z,-0.50
2018-12-29T06:41:50.397Z,-0.50
2018-12-29T06:44:19.249Z,-0.40
2018-12-29T06:46:48.099Z,-0.30
2018-12-29T06:49:17.033Z,-0.20
2018-12-29T06:51:46.210Z,-0.20
2018-12-29T06:54:15.079Z,-0.20
2018-12-29T06:56:44.028Z,-0.10
2018-12-29T06:59:13.733Z,-0.10
2018-12-29T07:01:42.766Z,-0.10
2018-12-29T07:04:11.686Z,-0.20
2018-12-29T07:06:40.586Z,-0.10
2018-12-29T07:09:09.855Z,-0.20
2018-12-29T07:11:38.796Z,-0.40
2018-12-29T07:14:07.766Z,-0.40
2018-12-29T07:16:42.215Z,-0.30
2018-12-29T07:19:07.304Z,-0.30
2018-12-29T07:21:36.364Z,-0.30
2018-12-29T07:24:05.378Z,-0.20
2018-12-29T07:26:34.301Z,-0.20
2018-12-29T07:29:04.163Z,-0.20
2018-12-29T07:31:33.491Z,-0.20
2018-12-29T07:34:02.673Z,-0.40
2018-12-29T07:36:31.595Z,-0.30
2018-12-29T07:39:00.666Z,-0.20
2018-12-29T07:41:29.655Z,-0.20
2018-12-29T07:43:58.739Z,-0.30
2018-12-29T07:46:27.722Z,-0.30
2018-12-29T07:48:56.670Z,-0.30
2018-12-29T07:51:25.640Z,-0.40
2018-12-29T07:53:55.069Z,-0.30
2018-12-29T07:56:24.321Z,-0.30
2018-12-29T07:58:53.338Z,-0.20
2018-12-29T08:01:22.312Z,-0.20
2018-12-29T08:03:51.341Z,0.00
2018-12-29T08:06:20.390Z,0.10
2018-12-29T08:08:49.306Z,0.10
2018-12-29T08:11:18.299Z,0.20
2018-12-29T08:13:47.188Z,0.10
2018-12-29T08:16:16.079Z,0.20
2018-12-29T08:18:45.165Z,0.20
2018-12-29T08:21:14.122Z,0.10
2018-12-29T08:23:42.999Z,-0.10
2018-12-29T08:26:11.978Z,0.00
2018-12-29T08:28:40.944Z,-0.10
2018-12-29T08:31:10.423Z,-0.20
2018-12-29T08:33:39.570Z,-0.10
2018-12-29T08:36:08.438Z,-0.10
2018-12-29T08:38:37.467Z,-0.10
2018-12-29T08:41:06.491Z,0.10
2018-12-29T08:43:35.472Z,0.00
2018-12-29T08:46:04.521Z,0.10
2018-12-29T08:48:33.378Z,0.10
2018-12-29T08:51:02.449Z,0.00
2018-12-29T08:53:31.467Z,0.00
2018-12-29T08:56:00.435Z,0.00
2018-12-29T08:58:29.430Z,0.10
2018-12-29T09:00:58.402Z,0.20
2018-12-29T09:03:28.391Z,0.20
2018-12-29T09:05:57.325Z,0.20
2018-12-29T09:08:26.277Z,0.10
2018-12-29T09:10:55.210Z,0.30
2018-12-29T09:13:24.082Z,0.40
2018-12-29T09:15:53.103Z,0.40
2018-12-29T09:18:22.026Z,0.60
2018-12-29T09:20:50.932Z,0.50
2018-12-29T09:23:19.970Z,0.50
2018-12-29T09:25:48.860Z,0.70
2018-12-29T09:28:17.781Z,0.70
2018-12-29T09:30:46.858Z,0.60
2018-12-29T09:33:15.858Z,0.70
2018-12-29T09:35:44.722Z,0.70
2018-12-29T09:38:13.989Z,0.80
2018-12-29T09:40:42.985Z,1.00
2018-12-29T09:43:11.961Z,1.10
2018-12-29T09:45:41.012Z,1.30
2018-12-29T09:48:10.291Z,1.20
2018-12-29T09:50:39.588Z,1.20
2018-12-29T09:53:08.571Z,1.40
2018-12-29T09:55:37.431Z,1.60
2018-12-29T09:58:06.404Z,1.60
2018-12-29T10:00:35.269Z,1.50
2018-12-29T10:03:04.256Z,1.50
2018-12-29T10:05:33.466Z,1.50
2018-12-29T10:08:02.360Z,1.50
2018-12-29T10:10:31.410Z,1.50
2018-12-29T10:13:00.374Z,1.40
2018-12-29T10:15:29.329Z,1.50
2018-12-29T10:17:58.193Z,1.50
2018-12-29T10:20:27.047Z,1.50
2018-12-29T10:22:56.504Z,1.80
2018-12-29T10:25:25.422Z,2.00
2018-12-29T10:27:54.443Z,2.10
2018-12-29T10:30:23.452Z,2.20
2018-12-29T10:32:52.397Z,2.20
2018-12-29T10:35:21.361Z,2.20
2018-12-29T10:37:50.289Z,2.30
2018-12-29T10:40:19.264Z,2.40
2018-12-29T10:42:48.221Z,2.30
2018-12-29T10:45:17.462Z,2.30
2018-12-29T10:47:46.358Z,2.50
2018-12-29T10:50:15.328Z,2.50
2018-12-29T10:52:44.332Z,2.60
2018-12-29T10:55:13.616Z,2.60
2018-12-29T10:57:42.828Z,2.60
2018-12-29T11:00:12.558Z,2.70
2018-12-29T11:02:41.558Z,2.60
2018-12-29T11:05:10.540Z,2.50
2018-12-29T11:07:39.576Z,2.60
2018-12-29T11:10:08.446Z,2.60
2018-12-29T11:12:37.406Z,2.70
2018-12-29T11:15:06.441Z,2.60
2018-12-29T11:17:42.132Z,2.70
2018-12-29T11:20:06.142Z,2.60
2018-12-29T11:22:35.206Z,2.60
2018-12-29T11:25:04.195Z,2.70
2018-12-29T11:27:33.193Z,2.60
2018-12-29T11:30:03.080Z,2.70
2018-12-29T11:32:32.013Z,2.80
2018-12-29T11:35:01.586Z,2.80
2018-12-29T11:37:30.601Z,2.80
2018-12-29T11:39:59.574Z,3.00
2018-12-29T11:42:28.770Z,3.20
2018-12-29T11:44:57.712Z,3.30
2018-12-29T11:47:26.989Z,3.40
2018-12-29T11:49:55.854Z,3.50
2018-12-29T11:52:24.997Z,3.50
2018-12-29T11:54:54.359Z,3.50
2018-12-29T11:57:23.261Z,3.40
2018-12-29T11:59:52.233Z,3.50
2018-12-29T12:02:24.549Z,3.50
2018-12-29T12:04:51.778Z,3.40
2018-12-29T12:07:21.578Z,3.50
2018-12-29T12:09:50.779Z,3.60
2018-12-29T12:12:20.515Z,3.60
2018-12-29T12:14:49.801Z,3.50
2018-12-29T12:17:18.735Z,3.60
2018-12-29T12:19:47.791Z,3.60
2018-12-29T12:22:17.747Z,3.60
2018-12-29T12:24:46.705Z,3.80
2018-12-29T12:27:15.905Z,3.80
2018-12-29T12:29:45.302Z,3.80
2018-12-29T12:32:14.440Z,3.80
2018-12-29T12:34:43.299Z,3.60
2018-12-29T12:37:12.385Z,3.60
2018-12-29T12:39:41.921Z,3.80
2018-12-29T12:42:10.892Z,3.90
2018-12-29T12:44:39.887Z,3.80
2018-12-29T12:47:09.487Z,3.80
2018-12-29T12:49:38.546Z,3.70
2018-12-29T12:52:07.972Z,3.80
2018-12-29T12:54:36.969Z,3.70
2018-12-29T12:57:07.479Z,3.60
2018-12-29T12:59:36.858Z,3.60
2018-12-29T13:02:06.378Z,3.70
2018-12-29T13:04:35.309Z,3.60
2018-12-29T13:07:04.652Z,3.50
2018-12-29T13:09:33.669Z,3.20
2018-12-29T13:12:03.326Z,3.30
2018-12-29T13:14:33.479Z,3.30
2018-12-29T13:17:02.869Z,3.30
2018-12-29T13:19:31.883Z,3.20
2018-12-29T13:22:01.682Z,3.20
2018-12-29T13:24:30.699Z,3.30
2018-12-29T13:26:59.613Z,3.20
2018-12-29T13:29:29.107Z,3.20
2018-12-29T13:31:58.369Z,3.30
2018-12-29T13:34:30.606Z,3.20
2018-12-29T13:36:59.686Z,3.20
2018-12-29T13:39:28.915Z,3.20
2018-12-29T13:41:58.547Z,3.10
2018-12-29T13:44:27.541Z,3.20
2018-12-29T13:46:57.503Z,3.20
2018-12-29T13:49:26.500Z,3.20
2018-12-29T13:51:56.658Z,3.10
2018-12-29T13:54:26.426Z,3.10
2018-12-29T13:56:55.393Z,3.10
2018-12-29T13:59:24.378Z,3.10
2018-12-29T14:01:54.667Z,3.20
2018-12-29T14:04:23.605Z,3.30
2018-12-29T14:06:52.578Z,3.30
2018-12-29T14:09:21.683Z,3.30
2018-12-29T14:11:50.563Z,3.30
2018-12-29T14:14:20.620Z,3.20
2018-12-29T14:16:49.555Z,3.20
2018-12-29T14:19:18.773Z,3.30
2018-12-29T14:21:48.224Z,3.20
2018-12-29T14:24:17.185Z,3.20
2018-12-29T14:26:46.620Z,3.20
2018-12-29T14:32:44.634Z,3.00
2018-12-29T14:35:13.506Z,3.00
2018-12-29T14:37:42.367Z,3.00
2018-12-29T14:40:11.234Z,2.90
2018-12-29T14:42:40.133Z,2.90
2018-12-29T14:45:09.100Z,2.80
2018-12-29T14:47:38.987Z,2.90
2018-12-29T14:50:07.998Z,2.90
2018-12-29T14:52:37.386Z,2.90
2018-12-29T14:55:06.695Z,2.90
2018-12-29T14:57:35.937Z,2.90
2018-12-29T15:00:05.139Z,2.80
2018-12-29T15:02:34.094Z,2.90
2018-12-29T15:05:03.395Z,2.90
2018-12-29T15:07:32.630Z,2.80
2018-12-29T15:10:01.563Z,2.80
2018-12-29T15:12:30.602Z,2.80
2018-12-29T15:14:59.954Z,2.90
2018-12-29T15:17:28.940Z,2.80
2018-12-29T15:19:57.914Z,2.80
2018-12-29T15:22:26.850Z,2.80
2018-12-29T15:24:56.096Z,2.90
2018-12-29T15:27:25.085Z,2.90
2018-12-29T15:29:54.011Z,2.80
2018-12-29T15:32:23.210Z,2.80
2018-12-29T15:34:52.231Z,2.80
2018-12-29T15:37:21.220Z,2.80
2018-12-29T15:39:50.245Z,2.80
2018-12-29T15:42:19.710Z,2.80
2018-12-29T15:44:48.888Z,2.80
2018-12-29T15:47:17.778Z,2.80
2018-12-29T15:49:47.104Z,2.80
2018-12-29T15:52:16.002Z,2.80
2018-12-29T15:54:45.655Z,2.70
2018-12-29T15:57:14.651Z,2.70
2018-12-29T15:59:44.103Z,2.70
2018-12-29T16:02:13.064Z,2.70
2018-12-29T16:04:41.999Z,2.70
2018-12-29T16:07:10.961Z,2.70
2018-12-29T16:10:00.514Z,2.70
2018-12-29T16:12:29.426Z,2.70
2018-12-29T16:14:58.359Z,2.70
2018-12-29T16:17:27.326Z,2.60
2018-12-29T16:19:56.676Z,2.70
2018-12-29T16:22:25.605Z,2.60
2018-12-29T16:24:54.669Z,2.70
2018-12-29T16:27:23.731Z,2.60
2018-12-29T16:29:52.652Z,2.70
2018-12-29T16:32:21.582Z,2.60
2018-12-29T16:34:50.682Z,2.60
2018-12-29T16:37:20.055Z,2.60
2018-12-29T16:39:48.921Z,2.60
2018-12-29T16:42:17.861Z,2.70
2018-12-29T16:44:47.027Z,2.70
2018-12-29T16:47:15.935Z,2.60
2018-12-29T16:49:44.829Z,2.60
2018-12-29T16:52:13.757Z,2.60
2018-12-29T16:54:42.723Z,2.60
2018-12-29T16:57:11.691Z,2.70
2018-12-29T16:59:40.779Z,2.70
2018-12-29T17:02:09.719Z,2.70
2018-12-29T17:04:38.763Z,2.70
2018-12-29T17:07:07.722Z,2.70
2018-12-29T17:09:36.861Z,2.70
2018-12-29T17:12:07.044Z,2.80
2018-12-29T17:14:36.106Z,2.80
2018-12-29T17:17:05.036Z,2.80
2018-12-29T17:19:35.267Z,2.80
2018-12-29T17:22:04.327Z,2.70
2018-12-29T17:24:33.670Z,2.70
2018-12-29T17:27:03.287Z,2.80
2018-12-29T17:29:32.370Z,2.70
2018-12-29T17:32:01.523Z,2.60
2018-12-29T17:34:30.467Z,2.70
2018-12-29T17:36:59.485Z,2.70
2018-12-29T17:39:28.487Z,2.60
2018-12-29T17:41:57.568Z,2.70
2018-12-29T17:44:26.651Z,2.70
2018-12-29T17:46:55.896Z,2.70
2018-12-29T17:49:24.906Z,2.60
2018-12-29T17:51:55.650Z,2.70
2018-12-29T17:54:24.666Z,2.70
2018-12-29T17:56:53.634Z,2.70
2018-12-29T17:59:22.847Z,2.80
2018-12-29T18:01:52.182Z,2.70
2018-12-29T18:04:21.178Z,2.70
2018-12-29T18:06:50.336Z,2.80
2018-12-29T18:09:19.990Z,2.70
2018-12-29T18:11:49.067Z,2.70
2018-12-29T18:14:18.083Z,2.80
2018-12-29T18:16:47.876Z,2.70
2018-12-29T18:19:17.426Z,2.70
2018-12-29T18:21:46.542Z,2.60
2018-12-29T18:24:15.571Z,2.60
2018-12-29T18:26:44.771Z,2.60
2018-12-29T18:29:13.841Z,2.60
2018-12-29T18:31:42.947Z,2.70
2018-12-29T18:34:12.527Z,2.60
2018-12-29T18:36:41.681Z,2.60
2018-12-29T18:39:10.735Z,2.60
2018-12-29T18:41:39.695Z,2.60
2018-12-29T18:44:09.196Z,2.40
2018-12-29T18:46:38.343Z,2.50
2018-12-29T18:49:08.307Z,2.40
2018-12-29T18:51:37.451Z,2.40
2018-12-29T18:54:06.764Z,2.50
2018-12-29T18:56:35.810Z,2.60
2018-12-29T18:59:05.294Z,2.60
2018-12-29T19:01:34.318Z,2.60
2018-12-29T19:04:03.523Z,2.50
2018-12-29T19:06:32.535Z,2.50
2018-12-29T19:09:01.465Z,2.50
2018-12-29T19:11:30.619Z,2.60
2018-12-29T19:13:59.842Z,2.50
2018-12-29T19:16:28.856Z,2.50
2018-12-29T19:19:01.331Z,2.50
2018-12-29T19:21:30.483Z,2.50
2018-12-29T19:24:01.568Z,2.50
2018-12-29T19:26:30.912Z,2.50
2018-12-29T19:29:00.239Z,2.60
2018-12-29T19:31:29.183Z,2.60
2018-12-29T19:34:00.239Z,2.70
2018-12-29T19:36:30.655Z,2.70
2018-12-29T19:39:01.477Z,2.70
2018-12-29T19:41:33.521Z,2.70
2018-12-29T19:44:05.655Z,2.60
2018-12-29T19:46:36.943Z,2.50
2018-12-29T19:49:08.659Z,2.60
2018-12-29T19:51:37.636Z,2.60
2018-12-29T19:54:09.659Z,2.60
2018-12-29T19:56:41.192Z,2.60
2018-12-29T19:59:10.731Z,2.60
2018-12-29T20:01:42.622Z,2.70
2018-12-29T20:04:15.066Z,2.70
2018-12-29T20:06:46.461Z,2.70
2018-12-29T20:09:15.675Z,2.60
2018-12-29T20:11:44.812Z,2.50
2018-12-29T20:14:17.007Z,2.60
2018-12-29T20:16:57.931Z,2.50
2018-12-29T20:19:33.384Z,2.40
2018-12-29T20:22:05.385Z,2.50
2018-12-29T20:24:34.671Z,2.50
2018-12-29T20:27:03.843Z,2.50
2018-12-29T20:29:38.400Z,2.50
2018-12-29T20:32:10.068Z,2.50
2018-12-29T20:34:39.076Z,2.40
2018-12-29T20:37:09.562Z,2.40
2018-12-29T20:39:41.479Z,2.30
2018-12-29T20:42:14.884Z,2.40
2018-12-29T20:44:44.404Z,2.30
2018-12-29T20:47:13.285Z,2.20
2018-12-29T20:49:45.456Z,2.00
2018-12-29T20:52:17.110Z,2.00
2018-12-29T20:54:52.421Z,2.10
2018-12-29T20:57:21.499Z,2.00
2018-12-29T20:59:53.258Z,2.00
2018-12-29T21:02:25.390Z,1.90
2018-12-29T21:04:57.183Z,1.90
2018-12-29T21:07:26.467Z,1.90
2018-12-29T21:09:55.338Z,1.90
2018-12-29T21:12:24.430Z,1.90
2018-12-29T21:14:53.476Z,1.80
2018-12-29T21:17:25.129Z,1.70
2018-12-29T21:19:54.168Z,1.80
2018-12-29T21:22:23.319Z,1.70
2018-12-29T21:24:55.515Z,1.60
2018-12-29T21:27:24.644Z,1.60
2018-12-29T21:29:56.399Z,1.60
2018-12-29T21:32:25.993Z,1.60
2018-12-29T21:35:14.205Z,1.60
2018-12-29T21:37:47.559Z,1.60
2018-12-29T21:40:16.662Z,1.60
2018-12-29T21:42:45.924Z,1.60
2018-12-29T21:45:15.026Z,1.60
2018-12-29T21:47:44.194Z,1.70
2018-12-29T21:50:13.388Z,1.70
2018-12-29T21:52:42.448Z,1.70
2018-12-29T21:55:12.026Z,1.70
2018-12-29T21:57:41.130Z,1.70
2018-12-29T22:00:13.040Z,1.80
2018-12-29T22:02:42.147Z,1.90
2018-12-29T22:05:11.257Z,1.70
2018-12-29T22:07:40.690Z,1.70
2018-12-29T22:10:09.751Z,1.80
2018-12-29T22:12:38.801Z,1.80
2018-12-29T22:15:08.915Z,1.70
2018-12-29T22:17:37.929Z,1.80
2018-12-29T22:20:07.895Z,1.70
2018-12-29T22:22:37.002Z,1.80
2018-12-29T22:25:06.141Z,1.70
2018-12-29T22:27:35.133Z,1.80
2018-12-29T22:30:04.364Z,1.70
2018-12-29T22:32:33.251Z,1.80
2018-12-29T22:35:02.335Z,1.90
2018-12-29T22:37:31.360Z,1.90
2018-12-29T22:40:00.427Z,2.00
2018-12-29T22:42:29.385Z,2.00
2018-12-29T22:44:58.512Z,2.00
2018-12-29T22:47:27.735Z,2.10
2018-12-29T22:49:56.858Z,2.20
2018-12-29T22:52:26.141Z,2.20
2018-12-29T22:54:55.779Z,2.20
2018-12-29T22:57:25.251Z,2.30
2018-12-29T22:59:55.042Z,2.40
2018-12-29T23:02:24.723Z,2.40
2018-12-29T23:04:54.069Z,2.50
2018-12-29T23:07:23.673Z,2.50
2018-12-29T23:09:53.273Z,2.60
2018-12-29T23:12:22.974Z,2.60
2018-12-29T23:14:52.664Z,2.60
2018-12-29T23:17:22.255Z,2.50
2018-12-29T23:19:51.896Z,2.50
2018-12-29T23:22:21.795Z,2.50
2018-12-29T23:24:51.675Z,2.60
2018-12-29T23:27:23.127Z,2.60
2018-12-29T23:29:54.089Z,2.60
2018-12-29T23:32:23.680Z,2.60
2018-12-29T23:35:13.380Z,2.60
2018-12-29T23:37:43.183Z,2.70
2018-12-29T23:40:12.692Z,2.70
2018-12-29T23:42:42.230Z,2.80
2018-12-29T23:45:11.740Z,2.80
2018-12-29T23:47:41.211Z,2.90
2018-12-29T23:50:13.386Z,3.00
2018-12-29T23:52:45.661Z,3.00
2018-12-29T23:55:15.214Z,3.10
2018-12-29T23:57:46.095Z,3.20
